sensor_id;sensor_type;location;lat;lon;timestamp;pressure;altitude;pressure_sealevel;temperature;humidity
66857;BME280;53766;50.280;19.160;2022-10-13T00:00:50;99313.09;;;18.03;44.39
66857;BME280;53766;50.280;19.160;2022-10-13T00:03:30;99314.28;;;18.00;44.37
66857;BME280;53766;50.280;19.160;2022-10-13T00:05:57;99320.28;;;18.02;44.42
66857;BME280;53766;50.280;19.160;2022-10-13T00:08:24;99312.47;;;18.01;44.33
66857;BME280;53766;50.280;19.160;2022-10-13T00:10:52;99306.28;;;18.00;44.41
66857;BME280;53766;50.280;19.160;2022-10-13T00:13:20;99307.97;;;18.01;44.33
66857;BME280;53766;50.280;19.160;2022-10-13T00:15:48;99306.28;;;18.00;44.44
66857;BME280;53766;50.280;19.160;2022-10-13T00:18:15;99299.31;;;17.99;44.33
66857;BME280;53766;50.280;19.160;2022-10-13T00:20:46;99297.66;;;17.98;44.35
66857;BME280;53766;50.280;19.160;2022-10-13T00:23:15;99299.31;;;17.99;44.40
66857;BME280;53766;50.280;19.160;2022-10-13T00:25:48;99304.66;;;17.99;44.43
66857;BME280;53766;50.280;19.160;2022-10-13T00:28:18;99304.66;;;17.99;44.60
66857;BME280;53766;50.280;19.160;2022-10-13T00:30:45;99296.00;;;17.97;44.43
66857;BME280;53766;50.280;19.160;2022-10-13T00:33:14;99296.84;;;17.98;44.45
66857;BME280;53766;50.280;19.160;2022-10-13T00:35:44;99287.19;;;17.97;44.35
66857;BME280;53766;50.280;19.160;2022-10-13T00:38:12;99288.84;;;17.98;44.38
66857;BME280;53766;50.280;19.160;2022-10-13T00:40:48;99287.19;;;17.97;44.43
66857;BME280;53766;50.280;19.160;2022-10-13T00:43:33;99286.34;;;17.96;44.52
66857;BME280;53766;50.280;19.160;2022-10-13T00:46:14;99283.66;;;17.96;44.48
66857;BME280;53766;50.280;19.160;2022-10-13T00:48:42;99280.19;;;17.96;44.33
66857;BME280;53766;50.280;19.160;2022-10-13T00:51:12;99279.38;;;17.95;44.41
66857;BME280;53766;50.280;19.160;2022-10-13T00:53:41;99276.69;;;17.95;44.35
66857;BME280;53766;50.280;19.160;2022-10-13T00:56:11;99282.03;;;17.95;44.36
66857;BME280;53766;50.280;19.160;2022-10-13T00:58:40;99282.03;;;17.95;44.32
66857;BME280;53766;50.280;19.160;2022-10-13T01:01:08;99275.03;;;17.94;44.39
66857;BME280;53766;50.280;19.160;2022-10-13T01:03:36;99274.22;;;17.94;44.45
66857;BME280;53766;50.280;19.160;2022-10-13T01:06:04;99278.72;;;17.93;44.53
66857;BME280;53766;50.280;19.160;2022-10-13T01:08:33;99278.72;;;17.93;44.52
66857;BME280;53766;50.280;19.160;2022-10-13T01:13:49;99278.72;;;17.93;44.40
66857;BME280;53766;50.280;19.160;2022-10-13T01:19:17;99275.41;;;17.91;44.58
66857;BME280;53766;50.280;19.160;2022-10-13T01:22:06;99272.75;;;17.91;44.52
66857;BME280;53766;50.280;19.160;2022-10-13T01:27:33;99263.09;;;17.90;44.54
66857;BME280;53766;50.280;19.160;2022-10-13T01:30:16;99269.25;;;17.91;44.50
66857;BME280;53766;50.280;19.160;2022-10-13T01:32:56;99259.41;;;17.91;44.42
66857;BME280;53766;50.280;19.160;2022-10-13T01:38:30;99250.78;;;17.89;44.60
66857;BME280;53766;50.280;19.160;2022-10-13T01:43:47;99252.63;;;17.88;44.43
66857;BME280;53766;50.280;19.160;2022-10-13T01:46:29;99246.47;;;17.88;44.49
66857;BME280;53766;50.280;19.160;2022-10-13T01:49:00;99248.28;;;17.87;44.41
66857;BME280;53766;50.280;19.160;2022-10-13T01:51:30;99243.97;;;17.86;44.52
66857;BME280;53766;50.280;19.160;2022-10-13T01:53:59;99242.94;;;17.87;44.44
66857;BME280;53766;50.280;19.160;2022-10-13T01:56:26;99239.63;;;17.85;44.48
66857;BME280;53766;50.280;19.160;2022-10-13T01:58:55;99235.16;;;17.86;44.40
66857;BME280;53766;50.280;19.160;2022-10-13T02:01:32;99235.16;;;17.86;44.44
66857;BME280;53766;50.280;19.160;2022-10-13T02:06:44;99228.97;;;17.85;44.57
66857;BME280;53766;50.280;19.160;2022-10-13T02:09:21;99227.31;;;17.84;44.34
66857;BME280;53766;50.280;19.160;2022-10-13T02:11:58;99230.81;;;17.85;44.58
66857;BME280;53766;50.280;19.160;2022-10-13T02:14:29;99226.50;;;17.84;44.41
66857;BME280;53766;50.280;19.160;2022-10-13T02:17:01;99231.03;;;17.83;44.46
66857;BME280;53766;50.280;19.160;2022-10-13T02:19:32;99222.16;;;17.83;44.44
66857;BME280;53766;50.280;19.160;2022-10-13T02:22:01;99219.50;;;17.83;44.56
66857;BME280;53766;50.280;19.160;2022-10-13T02:24:29;99224.84;;;17.83;44.52
66857;BME280;53766;50.280;19.160;2022-10-13T02:26:57;99210.53;;;17.84;44.59
66857;BME280;53766;50.280;19.160;2022-10-13T02:29:24;99219.69;;;17.81;44.45
66857;BME280;53766;50.280;19.160;2022-10-13T02:31:52;99222.34;;;17.81;44.42
66857;BME280;53766;50.280;19.160;2022-10-13T02:34:20;99224.16;;;17.81;44.46
66857;BME280;53766;50.280;19.160;2022-10-13T02:36:48;99216.16;;;17.81;44.50
66857;BME280;53766;50.280;19.160;2022-10-13T02:39:16;99221.50;;;17.81;44.52
66857;BME280;53766;50.280;19.160;2022-10-13T02:41:43;99227.66;;;17.81;44.57
66857;BME280;53766;50.280;19.160;2022-10-13T02:44:11;99226.81;;;17.81;44.51
66857;BME280;53766;50.280;19.160;2022-10-13T02:46:38;99219.84;;;17.80;44.45
66857;BME280;53766;50.280;19.160;2022-10-13T02:49:06;99212.84;;;17.79;44.59
66857;BME280;53766;50.280;19.160;2022-10-13T02:51:33;99218.19;;;17.79;44.57
66857;BME280;53766;50.280;19.160;2022-10-13T02:54:06;99218.19;;;17.79;44.57
66857;BME280;53766;50.280;19.160;2022-10-13T02:56:34;99218.19;;;17.79;44.46
66857;BME280;53766;50.280;19.160;2022-10-13T02:59:02;99221.88;;;17.78;44.56
66857;BME280;53766;50.280;19.160;2022-10-13T03:01:29;99220.03;;;17.78;44.47
66857;BME280;53766;50.280;19.160;2022-10-13T03:03:57;99216.53;;;17.78;44.55
66857;BME280;53766;50.280;19.160;2022-10-13T03:06:25;99212.41;;;17.75;44.56
66857;BME280;53766;50.280;19.160;2022-10-13T03:08:52;99214.88;;;17.77;44.54
66857;BME280;53766;50.280;19.160;2022-10-13T03:11:20;99218.38;;;17.77;44.49
66857;BME280;53766;50.280;19.160;2022-10-13T03:13:47;99213.22;;;17.76;44.42
66857;BME280;53766;50.280;19.160;2022-10-13T03:16:15;99216.91;;;17.75;44.48
66857;BME280;53766;50.280;19.160;2022-10-13T03:18:42;99214.25;;;17.75;44.54
66857;BME280;53766;50.280;19.160;2022-10-13T03:21:10;99210.72;;;17.74;44.34
66857;BME280;53766;50.280;19.160;2022-10-13T03:23:38;99209.09;;;17.73;44.47
66857;BME280;53766;50.280;19.160;2022-10-13T03:26:06;99215.25;;;17.74;44.48
66857;BME280;53766;50.280;19.160;2022-10-13T03:28:33;99215.25;;;17.74;44.60
66857;BME280;53766;50.280;19.160;2022-10-13T03:31:06;99204.59;;;17.74;44.46
66857;BME280;53766;50.280;19.160;2022-10-13T03:33:34;99206.59;;;17.72;44.45
66857;BME280;53766;50.280;19.160;2022-10-13T03:36:04;99209.09;;;17.73;44.51
66857;BME280;53766;50.280;19.160;2022-10-13T03:38:33;99206.59;;;17.72;44.20
66857;BME280;53766;50.280;19.160;2022-10-13T03:41:13;99212.94;;;17.71;44.46
66857;BME280;53766;50.280;19.160;2022-10-13T03:43:41;99216.44;;;17.71;44.40
66857;BME280;53766;50.280;19.160;2022-10-13T03:46:11;99215.63;;;17.71;44.35
66857;BME280;53766;50.280;19.160;2022-10-13T03:48:39;99210.28;;;17.71;44.48
66857;BME280;53766;50.280;19.160;2022-10-13T03:51:15;99203.28;;;17.69;44.39
66857;BME280;53766;50.280;19.160;2022-10-13T03:53:43;99202.47;;;17.69;44.39
66857;BME280;53766;50.280;19.160;2022-10-13T03:56:16;99203.28;;;17.69;44.37
66857;BME280;53766;50.280;19.160;2022-10-13T03:58:44;99195.28;;;17.69;44.37
66857;BME280;53766;50.280;19.160;2022-10-13T04:01:12;99193.66;;;17.68;44.61
66857;BME280;53766;50.280;19.160;2022-10-13T04:03:40;99192.63;;;17.69;44.49
66857;BME280;53766;50.280;19.160;2022-10-13T04:06:08;99185.66;;;17.68;44.31
66857;BME280;53766;50.280;19.160;2022-10-13T04:08:36;99189.31;;;17.67;44.31
66857;BME280;53766;50.280;19.160;2022-10-13T04:11:06;99190.13;;;17.68;44.45
66857;BME280;53766;50.280;19.160;2022-10-13T04:13:34;99184.00;;;17.67;44.32
66857;BME280;53766;50.280;19.160;2022-10-13T04:16:04;99177.03;;;17.66;44.50
66857;BME280;53766;50.280;19.160;2022-10-13T04:18:32;99187.69;;;17.66;44.33
66857;BME280;53766;50.280;19.160;2022-10-13T04:21:00;99183.34;;;17.65;44.36
66857;BME280;53766;50.280;19.160;2022-10-13T04:23:27;99181.53;;;17.66;44.29
66857;BME280;53766;50.280;19.160;2022-10-13T04:25:54;99191.34;;;17.65;44.38
66857;BME280;53766;50.280;19.160;2022-10-13T04:28:23;99185.19;;;17.65;44.38
66857;BME280;53766;50.280;19.160;2022-10-13T04:30:51;99190.50;;;17.65;44.42
66857;BME280;53766;50.280;19.160;2022-10-13T04:33:18;99195.03;;;17.64;44.31
66857;BME280;53766;50.280;19.160;2022-10-13T04:35:45;99191.53;;;17.64;44.23
66857;BME280;53766;50.280;19.160;2022-10-13T04:38:13;99203.00;;;17.64;44.13
66857;BME280;53766;50.280;19.160;2022-10-13T04:40:41;99197.69;;;17.64;44.25
66857;BME280;53766;50.280;19.160;2022-10-13T04:43:08;99198.66;;;17.63;44.20
66857;BME280;53766;50.280;19.160;2022-10-13T04:45:36;99190.69;;;17.63;44.27
66857;BME280;53766;50.280;19.160;2022-10-13T04:48:03;99190.03;;;17.61;44.34
66857;BME280;53766;50.280;19.160;2022-10-13T04:50:31;99202.38;;;17.62;44.32
66857;BME280;53766;50.280;19.160;2022-10-13T04:52:58;99203.19;;;17.63;44.24
66857;BME280;53766;50.280;19.160;2022-10-13T04:55:26;99197.84;;;17.63;44.17
66857;BME280;53766;50.280;19.160;2022-10-13T04:57:53;99203.19;;;17.63;44.35
66857;BME280;53766;50.280;19.160;2022-10-13T05:00:21;99199.03;;;17.60;44.16
66857;BME280;53766;50.280;19.160;2022-10-13T05:02:48;99200.69;;;17.61;44.11
66857;BME280;53766;50.280;19.160;2022-10-13T05:05:16;99199.88;;;17.61;44.19
66857;BME280;53766;50.280;19.160;2022-10-13T05:07:44;99207.03;;;17.60;44.24
66857;BME280;53766;50.280;19.160;2022-10-13T05:10:11;99203.56;;;17.60;44.27
66857;BME280;53766;50.280;19.160;2022-10-13T05:12:39;99202.69;;;17.59;44.25
66857;BME280;53766;50.280;19.160;2022-10-13T05:15:07;99205.38;;;17.59;44.25
66857;BME280;53766;50.280;19.160;2022-10-13T05:17:35;99201.88;;;17.59;44.20
66857;BME280;53766;50.280;19.160;2022-10-13T05:20:02;99202.69;;;17.59;44.21
66857;BME280;53766;50.280;19.160;2022-10-13T05:22:30;99202.69;;;17.59;43.98
66857;BME280;53766;50.280;19.160;2022-10-13T05:24:57;99195.72;;;17.58;44.19
66857;BME280;53766;50.280;19.160;2022-10-13T05:27:25;99190.41;;;17.58;44.24
66857;BME280;53766;50.280;19.160;2022-10-13T05:29:52;99194.91;;;17.58;44.19
66857;BME280;53766;50.280;19.160;2022-10-13T05:32:20;99194.09;;;17.57;44.36
66857;BME280;53766;50.280;19.160;2022-10-13T05:34:48;99199.41;;;17.57;44.27
66857;BME280;53766;50.280;19.160;2022-10-13T05:37:15;99204.75;;;17.57;44.23
66857;BME280;53766;50.280;19.160;2022-10-13T05:39:44;99214.38;;;17.58;44.32
66857;BME280;53766;50.280;19.160;2022-10-13T05:42:15;99205.56;;;17.58;44.40
66857;BME280;53766;50.280;19.160;2022-10-13T05:44:43;99204.75;;;17.57;44.33
66857;BME280;53766;50.280;19.160;2022-10-13T05:47:10;99210.91;;;17.58;44.31
66857;BME280;53766;50.280;19.160;2022-10-13T05:49:38;99207.41;;;17.57;44.49
66857;BME280;53766;50.280;19.160;2022-10-13T05:52:08;99210.06;;;17.57;44.38
66857;BME280;53766;50.280;19.160;2022-10-13T05:54:44;99210.06;;;17.57;44.47
66857;BME280;53766;50.280;19.160;2022-10-13T05:59:59;99211.88;;;17.57;44.30
66857;BME280;53766;50.280;19.160;2022-10-13T06:02:34;99204.75;;;17.57;44.28
66857;BME280;53766;50.280;19.160;2022-10-13T06:05:06;99203.06;;;17.56;44.32
66857;BME280;53766;50.280;19.160;2022-10-13T06:07:34;99198.56;;;17.57;44.45
66857;BME280;53766;50.280;19.160;2022-10-13T06:10:02;99199.41;;;17.57;44.41
66857;BME280;53766;50.280;19.160;2022-10-13T06:12:30;99201.06;;;17.58;44.39
66857;BME280;53766;50.280;19.160;2022-10-13T06:14:57;99192.25;;;17.58;44.28
66857;BME280;53766;50.280;19.160;2022-10-13T06:17:25;99197.38;;;17.59;44.42
66857;BME280;53766;50.280;19.160;2022-10-13T06:19:53;99191.06;;;17.60;44.33
66857;BME280;53766;50.280;19.160;2022-10-13T06:22:20;99188.41;;;17.60;44.28
66857;BME280;53766;50.280;19.160;2022-10-13T06:24:48;99190.03;;;17.61;44.40
66857;BME280;53766;50.280;19.160;2022-10-13T06:27:16;99187.19;;;17.63;44.32
66857;BME280;53766;50.280;19.160;2022-10-13T06:29:44;99188.03;;;17.63;44.49
66857;BME280;53766;50.280;19.160;2022-10-13T06:32:11;99188.88;;;17.64;44.31
66857;BME280;53766;50.280;19.160;2022-10-13T06:34:39;99195.03;;;17.64;44.10
66857;BME280;53766;50.280;19.160;2022-10-13T06:37:06;99202.00;;;17.65;44.26
66857;BME280;53766;50.280;19.160;2022-10-13T06:39:34;99198.34;;;17.66;44.23
66857;BME280;53766;50.280;19.160;2022-10-13T06:42:01;99199.97;;;17.67;44.14
66857;BME280;53766;50.280;19.160;2022-10-13T06:44:30;99196.50;;;17.67;44.09
66857;BME280;53766;50.280;19.160;2022-10-13T06:46:58;99195.47;;;17.68;44.16
66857;BME280;53766;50.280;19.160;2022-10-13T06:49:26;99194.66;;;17.67;44.14
66857;BME280;53766;50.280;19.160;2022-10-13T06:51:54;99191.00;;;17.68;44.14
66857;BME280;53766;50.280;19.160;2022-10-13T06:54:22;99187.31;;;17.69;44.31
66857;BME280;53766;50.280;19.160;2022-10-13T06:56:50;99192.63;;;17.69;44.11
66857;BME280;53766;50.280;19.160;2022-10-13T06:59:18;99190.63;;;17.72;43.92
66857;BME280;53766;50.280;19.160;2022-10-13T07:01:46;99191.44;;;17.72;44.05
66857;BME280;53766;50.280;19.160;2022-10-13T07:04:14;99186.97;;;17.73;43.97
66857;BME280;53766;50.280;19.160;2022-10-13T07:06:42;99184.09;;;17.74;43.90
66857;BME280;53766;50.280;19.160;2022-10-13T07:09:10;99180.44;;;17.75;43.93
66857;BME280;53766;50.280;19.160;2022-10-13T07:11:37;99180.22;;;17.77;43.94
66857;BME280;53766;50.280;19.160;2022-10-13T07:14:05;99178.41;;;17.77;43.94
66857;BME280;53766;50.280;19.160;2022-10-13T07:16:33;99180.88;;;17.79;43.80
66857;BME280;53766;50.280;19.160;2022-10-13T07:19:01;99182.56;;;17.80;43.90
66857;BME280;53766;50.280;19.160;2022-10-13T07:21:28;99182.56;;;17.80;43.89
66857;BME280;53766;50.280;19.160;2022-10-13T07:23:56;99177.22;;;17.80;43.84
66857;BME280;53766;50.280;19.160;2022-10-13T07:26:23;99176.19;;;17.81;43.76
66857;BME280;53766;50.280;19.160;2022-10-13T07:28:51;99175.22;;;17.82;43.79
66857;BME280;53766;50.280;19.160;2022-10-13T07:31:20;99177.91;;;17.82;43.85
66857;BME280;53766;50.280;19.160;2022-10-13T07:33:49;99176.88;;;17.83;43.86
66857;BME280;53766;50.280;19.160;2022-10-13T07:36:17;99179.53;;;17.83;43.86
66857;BME280;53766;50.280;19.160;2022-10-13T07:38:45;99177.72;;;17.83;43.89
66857;BME280;53766;50.280;19.160;2022-10-13T07:41:13;99178.53;;;17.84;43.88
66857;BME280;53766;50.280;19.160;2022-10-13T07:43:41;99167.88;;;17.84;43.85
66857;BME280;53766;50.280;19.160;2022-10-13T07:46:11;99171.19;;;17.86;43.72
66857;BME280;53766;50.280;19.160;2022-10-13T07:48:40;99159.69;;;17.85;43.79
66857;BME280;53766;50.280;19.160;2022-10-13T07:51:10;99164.19;;;17.85;43.77
66857;BME280;53766;50.280;19.160;2022-10-13T07:53:39;99162.19;;;17.87;43.86
66857;BME280;53766;50.280;19.160;2022-10-13T07:56:10;99158.53;;;17.88;43.81
66857;BME280;53766;50.280;19.160;2022-10-13T07:58:40;99157.66;;;17.87;43.70
66857;BME280;53766;50.280;19.160;2022-10-13T08:01:08;99160.34;;;17.87;43.87
66857;BME280;53766;50.280;19.160;2022-10-13T08:03:36;99156.69;;;17.88;43.81
66857;BME280;53766;50.280;19.160;2022-10-13T08:06:08;99151.19;;;17.90;43.79
66857;BME280;53766;50.280;19.160;2022-10-13T08:08:36;99156.50;;;17.90;43.82
66857;BME280;53766;50.280;19.160;2022-10-13T08:11:07;99150.16;;;17.91;43.50
66857;BME280;53766;50.280;19.160;2022-10-13T08:13:38;99150.78;;;17.93;43.77
66857;BME280;53766;50.280;19.160;2022-10-13T08:16:06;99143.81;;;17.92;43.75
66857;BME280;53766;50.280;19.160;2022-10-13T08:18:33;99151.63;;;17.94;43.79
66857;BME280;53766;50.280;19.160;2022-10-13T08:21:02;99144.44;;;17.94;43.83
66857;BME280;53766;50.280;19.160;2022-10-13T08:23:49;99145.28;;;17.95;43.80
66857;BME280;53766;50.280;19.160;2022-10-13T08:26:23;99141.78;;;17.94;43.90
66857;BME280;53766;50.280;19.160;2022-10-13T08:28:51;99141.78;;;17.94;43.75
66857;BME280;53766;50.280;19.160;2022-10-13T08:31:39;99139.09;;;17.94;43.97
66857;BME280;53766;50.280;19.160;2022-10-13T08:34:08;99135.44;;;17.95;43.95
66857;BME280;53766;50.280;19.160;2022-10-13T08:36:36;99132.78;;;17.95;43.95
66857;BME280;53766;50.280;19.160;2022-10-13T08:39:04;99139.75;;;17.96;43.85
66857;BME280;53766;50.280;19.160;2022-10-13T08:41:36;99140.59;;;17.97;43.83
66857;BME280;53766;50.280;19.160;2022-10-13T08:50:01;99131.41;;;17.99;43.77
66857;BME280;53766;50.280;19.160;2022-10-13T08:52:46;99128.75;;;17.99;43.74
66857;BME280;53766;50.280;19.160;2022-10-13T08:55:56;99128.75;;;17.99;43.82
66857;BME280;53766;50.280;19.160;2022-10-13T08:58:25;99125.06;;;18.00;43.79
66857;BME280;53766;50.280;19.160;2022-10-13T09:01:05;99124.06;;;18.01;43.47
66857;BME280;53766;50.280;19.160;2022-10-13T09:06:37;99119.53;;;18.02;43.76
66857;BME280;53766;50.280;19.160;2022-10-13T09:09:10;99118.72;;;18.01;43.85
66857;BME280;53766;50.280;19.160;2022-10-13T09:11:40;99117.69;;;18.02;43.89
66857;BME280;53766;50.280;19.160;2022-10-13T09:14:23;99111.38;;;18.03;43.88
66857;BME280;53766;50.280;19.160;2022-10-13T09:16:52;99114.03;;;18.03;43.94
66857;BME280;53766;50.280;19.160;2022-10-13T09:19:28;99117.34;;;18.05;43.91
66857;BME280;53766;50.280;19.160;2022-10-13T09:22:20;99111.16;;;18.05;43.94
66857;BME280;53766;50.280;19.160;2022-10-13T09:27:58;99106.69;;;18.05;44.02
66857;BME280;53766;50.280;19.160;2022-10-13T09:40:42;99098.56;;;18.14;44.01
66857;BME280;53766;50.280;19.160;2022-10-13T09:48:40;99098.22;;;18.17;44.17
66857;BME280;53766;50.280;19.160;2022-10-13T09:53:58;99089.66;;;18.21;44.23
66857;BME280;53766;50.280;19.160;2022-10-13T09:56:48;99088.44;;;18.24;44.24
66857;BME280;53766;50.280;19.160;2022-10-13T09:59:30;99084.78;;;18.25;44.37
66857;BME280;53766;50.280;19.160;2022-10-13T10:04:46;99085.41;;;18.27;44.42
66857;BME280;53766;50.280;19.160;2022-10-13T10:07:19;99081.56;;;18.29;44.48
66857;BME280;53766;50.280;19.160;2022-10-13T10:09:54;99079.06;;;18.28;44.64
66857;BME280;53766;50.280;19.160;2022-10-13T10:12:25;99081.56;;;18.29;44.52
66857;BME280;53766;50.280;19.160;2022-10-13T10:14:55;99077.03;;;18.30;44.47
66857;BME280;53766;50.280;19.160;2022-10-13T10:17:27;99071.69;;;18.30;44.64
66857;BME280;53766;50.280;19.160;2022-10-13T10:23:06;99059.81;;;18.33;44.64
66857;BME280;53766;50.280;19.160;2022-10-13T10:25:47;99057.97;;;18.33;44.68
66857;BME280;53766;50.280;19.160;2022-10-13T10:31:52;99055.78;;;18.37;44.71
66857;BME280;53766;50.280;19.160;2022-10-13T10:39:37;99057.88;;;18.41;44.59
66857;BME280;53766;50.280;19.160;2022-10-13T10:45:01;99045.19;;;18.43;44.74
66857;BME280;53766;50.280;19.160;2022-10-13T10:47:36;99046.84;;;18.44;44.69
66857;BME280;53766;50.280;19.160;2022-10-13T10:50:13;99044.19;;;18.44;44.46
66857;BME280;53766;50.280;19.160;2022-10-13T10:53:01;99043.97;;;18.46;44.61
66857;BME280;53766;50.280;19.160;2022-10-13T11:08:45;99022.69;;;18.53;44.72
66857;BME280;53766;50.280;19.160;2022-10-13T11:14:24;99022.34;;;18.56;44.54
66857;BME280;53766;50.280;19.160;2022-10-13T11:19:34;99005.13;;;18.58;44.78
66857;BME280;53766;50.280;19.160;2022-10-13T11:52:00;98970.63;;;18.57;44.47
66857;BME280;53766;50.280;19.160;2022-10-13T11:54:50;98967.94;;;18.57;44.44
66857;BME280;53766;50.280;19.160;2022-10-13T11:57:23;98975.94;;;18.57;44.43
66857;BME280;53766;50.280;19.160;2022-10-13T11:59:54;98968.97;;;18.56;44.39
66857;BME280;53766;50.280;19.160;2022-10-13T12:02:24;98966.09;;;18.57;44.31
66857;BME280;53766;50.280;19.160;2022-10-13T12:07:39;98957.91;;;18.59;44.34
66857;BME280;53766;50.280;19.160;2022-10-13T12:10:17;98954.59;;;18.57;44.40
66857;BME280;53766;50.280;19.160;2022-10-13T12:12:47;98959.94;;;18.57;44.54
66857;BME280;53766;50.280;19.160;2022-10-13T12:15:36;98956.66;;;18.55;44.45
66857;BME280;53766;50.280;19.160;2022-10-13T12:18:22;98956.84;;;18.53;44.38
66857;BME280;53766;50.280;19.160;2022-10-13T12:20:59;98957.69;;;18.54;44.58
66857;BME280;53766;50.280;19.160;2022-10-13T12:23:27;98949.69;;;18.54;44.67
66857;BME280;53766;50.280;19.160;2022-10-13T12:25:57;98944.34;;;18.54;44.53
66857;BME280;53766;50.280;19.160;2022-10-13T12:28:42;98945.34;;;18.53;44.63
66857;BME280;53766;50.280;19.160;2022-10-13T12:31:20;98945.34;;;18.53;44.58
66857;BME280;53766;50.280;19.160;2022-10-13T12:33:59;98945.34;;;18.53;44.54
66857;BME280;53766;50.280;19.160;2022-10-13T12:36:29;98938.19;;;18.53;44.63
66857;BME280;53766;50.280;19.160;2022-10-13T12:39:01;98945.34;;;18.53;44.69
66857;BME280;53766;50.280;19.160;2022-10-13T12:41:31;98944.34;;;18.54;44.64
66857;BME280;53766;50.280;19.160;2022-10-13T12:44:02;98941.47;;;18.55;44.47
66857;BME280;53766;50.280;19.160;2022-10-13T12:49:12;98940.63;;;18.55;44.58
66857;BME280;53766;50.280;19.160;2022-10-13T12:51:42;98929.97;;;18.55;44.78
66857;BME280;53766;50.280;19.160;2022-10-13T12:54:20;98928.13;;;18.55;44.97
66857;BME280;53766;50.280;19.160;2022-10-13T12:56:49;98929.97;;;18.55;45.09
66857;BME280;53766;50.280;19.160;2022-10-13T12:59:24;98923.41;;;18.57;45.26
66857;BME280;53766;50.280;19.160;2022-10-13T13:01:55;98927.56;;;18.60;45.26
66857;BME280;53766;50.280;19.160;2022-10-13T13:07:02;98925.53;;;18.62;45.76
66857;BME280;53766;50.280;19.160;2022-10-13T13:09:34;98921.84;;;18.63;46.14
66857;BME280;53766;50.280;19.160;2022-10-13T13:12:18;98924.31;;;18.64;46.31
66857;BME280;53766;50.280;19.160;2022-10-13T13:14:50;98915.47;;;18.64;46.33
66857;BME280;53766;50.280;19.160;2022-10-13T13:17:27;98912.78;;;18.64;46.43
66857;BME280;53766;50.280;19.160;2022-10-13T13:20:30;98908.31;;;18.64;46.38
66857;BME280;53766;50.280;19.160;2022-10-13T13:22:57;98900.09;;;18.66;46.30
66857;BME280;53766;50.280;19.160;2022-10-13T13:25:25;98900.94;;;18.66;46.44
66857;BME280;53766;50.280;19.160;2022-10-13T13:27:53;98893.94;;;18.65;46.30
66857;BME280;53766;50.280;19.160;2022-10-13T13:30:22;98893.94;;;18.65;46.28
66857;BME280;53766;50.280;19.160;2022-10-13T13:32:50;98889.41;;;18.66;46.28
66857;BME280;53766;50.280;19.160;2022-10-13T13:35:18;98884.09;;;18.66;46.28
66857;BME280;53766;50.280;19.160;2022-10-13T13:37:49;98889.41;;;18.66;46.34
66857;BME280;53766;50.280;19.160;2022-10-13T13:40:21;98887.38;;;18.68;46.12
66857;BME280;53766;50.280;19.160;2022-10-13T13:42:49;98887.38;;;18.68;46.28
66857;BME280;53766;50.280;19.160;2022-10-13T13:45:21;98883.72;;;18.69;46.26
66857;BME280;53766;50.280;19.160;2022-10-13T13:47:51;98885.56;;;18.68;46.12
66857;BME280;53766;50.280;19.160;2022-10-13T13:50:24;98885.34;;;18.70;46.11
66857;BME280;53766;50.280;19.160;2022-10-13T13:52:52;98892.34;;;18.71;46.14
66857;BME280;53766;50.280;19.160;2022-10-13T13:55:20;98892.34;;;18.71;45.99
66857;BME280;53766;50.280;19.160;2022-10-13T13:57:48;98884.34;;;18.71;46.03
66857;BME280;53766;50.280;19.160;2022-10-13T14:00:16;98887.00;;;18.71;45.95
66857;BME280;53766;50.280;19.160;2022-10-13T14:02:44;98880.00;;;18.70;46.05
66857;BME280;53766;50.280;19.160;2022-10-13T14:05:12;98879.81;;;18.71;45.92
66857;BME280;53766;50.280;19.160;2022-10-13T14:07:40;98876.34;;;18.71;46.10
66857;BME280;53766;50.280;19.160;2022-10-13T14:10:08;98883.31;;;18.72;45.90
66857;BME280;53766;50.280;19.160;2022-10-13T14:12:37;98879.81;;;18.71;45.82
66857;BME280;53766;50.280;19.160;2022-10-13T14:15:04;98885.97;;;18.72;45.86
66857;BME280;53766;50.280;19.160;2022-10-13T14:17:32;98881.69;;;18.71;45.88
66857;BME280;53766;50.280;19.160;2022-10-13T14:19:59;98880.84;;;18.70;45.88
66857;BME280;53766;50.280;19.160;2022-10-13T14:22:27;98886.19;;;18.70;45.85
66857;BME280;53766;50.280;19.160;2022-10-13T14:24:54;98880.00;;;18.70;45.96
66857;BME280;53766;50.280;19.160;2022-10-13T14:27:21;98880.00;;;18.70;45.98
66857;BME280;53766;50.280;19.160;2022-10-13T14:29:49;98878.38;;;18.69;46.00
66857;BME280;53766;50.280;19.160;2022-10-13T14:32:16;98882.91;;;18.68;45.80
66857;BME280;53766;50.280;19.160;2022-10-13T14:34:44;98879.38;;;18.68;45.90
66857;BME280;53766;50.280;19.160;2022-10-13T14:37:12;98875.91;;;18.67;45.90
66857;BME280;53766;50.280;19.160;2022-10-13T14:39:39;98885.75;;;18.67;45.96
66857;BME280;53766;50.280;19.160;2022-10-13T14:42:07;98889.41;;;18.66;45.80
66857;BME280;53766;50.280;19.160;2022-10-13T14:44:34;98882.44;;;18.65;45.85
66857;BME280;53766;50.280;19.160;2022-10-13T14:47:02;98882.44;;;18.65;45.94
66857;BME280;53766;50.280;19.160;2022-10-13T14:49:29;98875.44;;;18.64;45.88
66857;BME280;53766;50.280;19.160;2022-10-13T14:51:57;98882.63;;;18.63;45.87
66857;BME280;53766;50.280;19.160;2022-10-13T14:54:24;98879.16;;;18.63;45.87
66857;BME280;53766;50.280;19.160;2022-10-13T14:56:52;98882.84;;;18.62;45.97
66857;BME280;53766;50.280;19.160;2022-10-13T14:59:20;98877.69;;;18.60;45.93
66857;BME280;53766;50.280;19.160;2022-10-13T15:01:48;98881.19;;;18.61;45.99
66857;BME280;53766;50.280;19.160;2022-10-13T15:04:16;98878.69;;;18.59;45.71
66857;BME280;53766;50.280;19.160;2022-10-13T15:06:43;98875.22;;;18.59;45.93
66857;BME280;53766;50.280;19.160;2022-10-13T15:09:10;98870.91;;;18.58;45.86
66857;BME280;53766;50.280;19.160;2022-10-13T15:11:39;98875.22;;;18.59;45.86